createdAt,value
2019-04-30T00:00:50.146Z,101015.30
2019-04-30T00:02:01.942Z,101014.88
2019-04-30T00:03:22.605Z,101014.04
2019-04-30T00:04:37.555Z,101011.39
2019-04-30T00:05:39.287Z,101010.97
2019-04-30T00:06:45.345Z,101013.63
2019-04-30T00:07:50.911Z,101016.66
2019-04-30T00:08:57.690Z,101014.45
2019-04-30T00:10:02.298Z,101017.07
2019-04-30T00:11:10.808Z,101014.05
2019-04-30T00:12:15.681Z,101014.92
2019-04-30T00:13:21.106Z,101004.49
2019-04-30T00:14:32.026Z,101011.89
2019-04-30T00:15:31.746Z,101014.92
2019-04-30T00:16:39.798Z,101005.75
2019-04-30T00:17:42.345Z,101012.73
2019-04-30T00:18:58.157Z,101010.55
2019-04-30T00:19:55.825Z,101011.86
2019-04-30T00:21:00.274Z,101008.78
2019-04-30T00:22:05.746Z,101004.41
2019-04-30T00:23:10.179Z,101014.41
2019-04-30T00:24:15.843Z,101002.64
2019-04-30T00:25:26.928Z,100996.58
2019-04-30T00:26:26.740Z,101005.70
2019-04-30T00:27:31.262Z,100999.19
2019-04-30T00:28:39.449Z,100998.27
2019-04-30T00:29:41.977Z,101003.06
2019-04-30T00:30:47.838Z,101000.45
2019-04-30T00:31:58.500Z,101000.83
2019-04-30T00:32:59.556Z,101001.76
2019-04-30T00:34:05.050Z,100997.42
2019-04-30T00:35:11.734Z,101001.75
2019-04-30T00:36:17.396Z,100996.13
2019-04-30T00:37:22.009Z,100996.08
2019-04-30T00:38:29.530Z,100993.42
2019-04-30T00:39:32.977Z,100992.58
2019-04-30T00:40:37.714Z,100992.53
2019-04-30T00:41:44.051Z,100995.98
2019-04-30T00:42:48.323Z,100992.07
2019-04-30T00:43:55.066Z,100992.03
2019-04-30T00:44:59.590Z,100993.75
2019-04-30T00:46:05.457Z,100991.56
2019-04-30T00:47:10.299Z,100992.44
2019-04-30T00:48:19.868Z,100993.29
2019-04-30T00:49:23.302Z,100999.34
2019-04-30T00:50:29.114Z,100994.58
2019-04-30T00:51:35.337Z,100998.92
2019-04-30T00:52:39.927Z,100991.47
2019-04-30T00:53:51.199Z,100991.00
2019-04-30T00:54:50.549Z,100997.55
2019-04-30T00:55:55.611Z,100994.91
2019-04-30T00:57:06.542Z,101004.41
2019-04-30T00:58:07.645Z,100998.76
2019-04-30T00:59:12.429Z,101000.44
2019-04-30T01:00:25.325Z,100998.25
2019-04-30T01:01:25.531Z,101000.02
2019-04-30T01:02:37.579Z,101003.45
2019-04-30T01:03:49.269Z,100996.53
2019-04-30T01:05:00.116Z,101003.88
2019-04-30T01:06:00.646Z,101006.52
2019-04-30T01:07:08.607Z,101003.87
2019-04-30T01:08:12.461Z,101004.30
2019-04-30T01:09:16.915Z,101009.03
2019-04-30T01:10:24.779Z,101005.12
2019-04-30T01:11:28.139Z,101006.94
2019-04-30T01:12:38.477Z,101004.30
2019-04-30T01:13:41.439Z,101002.09
2019-04-30T01:14:45.500Z,100994.69
2019-04-30T01:15:52.491Z,100996.00
2019-04-30T01:16:56.469Z,101001.62
2019-04-30T01:18:00.966Z,101005.11
2019-04-30T01:19:12.662Z,101004.64
2019-04-30T01:20:12.649Z,100993.76
2019-04-30T01:21:18.490Z,101001.52
2019-04-30T01:22:28.399Z,101001.98
2019-04-30T01:23:29.673Z,100998.39
2019-04-30T01:24:34.353Z,100997.97
2019-04-30T01:25:38.980Z,100994.47
2019-04-30T01:26:43.614Z,100994.41
2019-04-30T01:27:49.146Z,100993.17
2019-04-30T01:29:00.563Z,100993.17
2019-04-30T01:30:01.609Z,100997.55
2019-04-30T01:31:08.955Z,100998.85
2019-04-30T01:32:19.226Z,100996.25
2019-04-30T01:33:20.033Z,100989.37
2019-04-30T01:34:24.852Z,100982.03
2019-04-30T01:35:32.717Z,100989.43
2019-04-30T01:36:35.486Z,100990.31
2019-04-30T01:37:39.939Z,100990.27
2019-04-30T01:38:44.856Z,100998.55
2019-04-30T01:39:50.614Z,100991.61
2019-04-30T01:40:55.105Z,100987.20
2019-04-30T01:42:02.872Z,100990.22
2019-04-30T01:43:06.077Z,100983.70
2019-04-30T01:44:12.169Z,100987.97
2019-04-30T01:45:18.628Z,100984.11
2019-04-30T01:46:23.302Z,100986.23
2019-04-30T01:47:29.549Z,100989.27
2019-04-30T01:48:34.195Z,100984.52
2019-04-30T01:49:42.860Z,100979.72
2019-04-30T01:50:44.829Z,100987.97
2019-04-30T01:51:52.826Z,100979.31
2019-04-30T01:52:55.452Z,100981.45
2019-04-30T01:53:59.894Z,100979.67
2019-04-30T01:55:04.825Z,100984.01
2019-04-30T01:56:16.708Z,100983.93
2019-04-30T01:57:22.803Z,100975.22
2019-04-30T01:58:33.364Z,100988.20
2019-04-30T01:59:55.804Z,100980.38
2019-04-30T02:01:01.931Z,100985.11
2019-04-30T02:02:06.397Z,100985.06
2019-04-30T02:03:11.193Z,100984.18
2019-04-30T02:04:15.948Z,100985.53
2019-04-30T02:05:20.393Z,100983.34
2019-04-30T02:06:24.885Z,100980.38
2019-04-30T02:07:29.722Z,100977.71
2019-04-30T02:08:34.184Z,100983.36
2019-04-30T02:09:38.863Z,100989.84
2019-04-30T02:10:43.265Z,100991.57
2019-04-30T02:11:48.798Z,100987.17
2019-04-30T02:12:53.373Z,100987.59
2019-04-30T02:13:59.110Z,100980.55
2019-04-30T02:15:04.345Z,100983.98
2019-04-30T02:16:08.901Z,100982.63
2019-04-30T02:17:13.348Z,100980.84
2019-04-30T02:18:19.454Z,100980.89
2019-04-30T02:19:24.138Z,100985.22
2019-04-30T02:20:28.868Z,100988.16
2019-04-30T02:21:33.567Z,100986.32
2019-04-30T02:22:38.969Z,100986.78
2019-04-30T02:23:44.044Z,100991.09
2019-04-30T02:24:48.851Z,100986.25
2019-04-30T02:25:53.309Z,100992.35
2019-04-30T02:26:59.468Z,100985.43
2019-04-30T02:28:04.195Z,100984.11
2019-04-30T02:29:09.193Z,100982.42
2019-04-30T02:30:14.836Z,100981.52
2019-04-30T02:31:22.998Z,100985.43
2019-04-30T02:32:25.465Z,100983.24
2019-04-30T02:33:31.705Z,100989.31
2019-04-30T02:34:42.211Z,100983.70
2019-04-30T02:35:54.527Z,100986.23
2019-04-30T02:37:06.380Z,100986.24
2019-04-30T02:38:20.222Z,100984.95
2019-04-30T02:39:24.977Z,100991.03
2019-04-30T02:40:31.854Z,100987.48
2019-04-30T02:41:41.152Z,100983.52
2019-04-30T02:42:44.969Z,100990.13
2019-04-30T02:43:52.039Z,100994.88
2019-04-30T02:45:03.250Z,100990.09
2019-04-30T02:46:06.233Z,100989.05
2019-04-30T02:47:13.271Z,100992.55
2019-04-30T02:48:20.780Z,100991.70
2019-04-30T02:49:30.433Z,100991.66
2019-04-30T02:50:35.772Z,100997.25
2019-04-30T02:51:41.691Z,100992.89
2019-04-30T02:52:47.051Z,100992.87
2019-04-30T02:54:03.418Z,100988.88
2019-04-30T02:55:11.486Z,100986.23
2019-04-30T02:56:19.618Z,100993.13
2019-04-30T02:57:23.833Z,100990.51
2019-04-30T02:58:29.396Z,100994.41
2019-04-30T02:59:34.246Z,100992.66
2019-04-30T03:00:39.430Z,100990.94
2019-04-30T03:01:44.074Z,100993.55
2019-04-30T03:02:50.586Z,100986.08
2019-04-30T03:03:54.679Z,100991.67
2019-04-30T03:05:00.227Z,100992.43
2019-04-30T03:06:04.986Z,100997.14
2019-04-30T03:07:09.841Z,100993.73
2019-04-30T03:08:14.645Z,101003.23
2019-04-30T03:09:20.200Z,101002.38
2019-04-30T03:10:25.086Z,101002.73
2019-04-30T03:11:30.199Z,101003.16
2019-04-30T03:12:34.976Z,101003.06
2019-04-30T03:13:42.496Z,101003.05
2019-04-30T03:14:45.591Z,101004.86
2019-04-30T03:15:50.431Z,101006.08
2019-04-30T03:17:00.231Z,101004.75
2019-04-30T03:18:06.548Z,101005.64
2019-04-30T03:19:19.614Z,101006.30
2019-04-30T03:20:36.230Z,101012.45
2019-04-30T03:21:56.268Z,101008.88
2019-04-30T03:23:02.427Z,101007.98
2019-04-30T03:24:10.616Z,101007.03
2019-04-30T03:25:14.536Z,101011.80
2019-04-30T03:26:20.006Z,101013.42
2019-04-30T03:27:25.055Z,101012.59
2019-04-30T03:28:30.246Z,101011.73
2019-04-30T03:29:34.751Z,101013.98
2019-04-30T03:30:42.078Z,101006.58
2019-04-30T03:31:45.918Z,101004.44
2019-04-30T03:32:56.210Z,101002.63
2019-04-30T03:33:56.557Z,101007.88
2019-04-30T03:35:03.241Z,101003.19
2019-04-30T03:36:11.992Z,101006.63
2019-04-30T03:37:13.722Z,101001.97
2019-04-30T03:38:20.342Z,101000.20
2019-04-30T03:39:24.694Z,101007.11
2019-04-30T03:40:30.169Z,101005.31
2019-04-30T03:41:34.865Z,101007.08
2019-04-30T03:42:39.739Z,101006.22
2019-04-30T03:43:44.285Z,101013.52
2019-04-30T03:44:49.611Z,101003.12
2019-04-30T03:45:54.643Z,101004.88
2019-04-30T03:46:59.521Z,101001.88
2019-04-30T03:48:04.141Z,101009.23
2019-04-30T03:49:12.563Z,101004.40
2019-04-30T03:50:15.007Z,101006.58
2019-04-30T03:51:19.940Z,101004.42
2019-04-30T03:52:24.879Z,101006.95
2019-04-30T03:53:29.909Z,101006.45
2019-04-30T03:54:34.500Z,101016.84
2019-04-30T03:55:39.970Z,101011.25
2019-04-30T03:56:49.895Z,101014.70
2019-04-30T03:57:52.552Z,101014.24
2019-04-30T03:58:57.019Z,101017.29
2019-04-30T04:00:01.474Z,101020.70
2019-04-30T04:01:23.952Z,101019.80
2019-04-30T04:02:42.145Z,101027.55
2019-04-30T04:04:04.467Z,101020.61
2019-04-30T04:05:14.637Z,101025.45
2019-04-30T04:06:29.699Z,101020.13
2019-04-30T04:07:53.097Z,101022.75
2019-04-30T04:09:00.259Z,101022.41
2019-04-30T04:10:19.727Z,101023.22
2019-04-30T04:11:25.834Z,101027.52
2019-04-30T04:12:30.803Z,101025.44
2019-04-30T04:13:40.085Z,101028.03
2019-04-30T04:14:44.232Z,101027.92
2019-04-30T04:15:49.921Z,101033.52
2019-04-30T04:16:54.952Z,101031.89
2019-04-30T04:18:00.417Z,101031.49
2019-04-30T04:19:05.101Z,101032.83
2019-04-30T04:20:10.560Z,101028.53
2019-04-30T04:21:17.035Z,101031.18
2019-04-30T04:22:22.045Z,101030.82
2019-04-30T04:23:32.310Z,101033.91
2019-04-30T04:24:32.647Z,101033.91
2019-04-30T04:25:39.728Z,101038.27
2019-04-30T04:26:43.859Z,101032.20
2019-04-30T04:27:50.864Z,101035.77
2019-04-30T04:28:54.825Z,101043.95
2019-04-30T04:30:01.179Z,101039.28
2019-04-30T04:31:09.481Z,101038.13
2019-04-30T04:32:13.234Z,101041.00
2019-04-30T04:33:19.960Z,101040.92
2019-04-30T04:34:23.935Z,101041.70
2019-04-30T04:35:29.860Z,101041.39
2019-04-30T04:36:34.631Z,101040.02
2019-04-30T04:37:39.653Z,101032.21
2019-04-30T04:38:44.301Z,101038.86
2019-04-30T04:39:49.997Z,101039.75
2019-04-30T04:40:54.967Z,101044.06
2019-04-30T04:41:59.946Z,101040.63
2019-04-30T04:43:10.687Z,101044.94
2019-04-30T04:44:15.139Z,101042.27
2019-04-30T04:45:19.994Z,101042.34
2019-04-30T04:46:24.634Z,101041.95
2019-04-30T04:47:30.930Z,101043.45
2019-04-30T04:48:35.278Z,101048.10
2019-04-30T04:49:39.901Z,101052.47
2019-04-30T04:50:44.379Z,101053.17
2019-04-30T04:51:49.351Z,101043.08
2019-04-30T04:52:53.918Z,101046.66
2019-04-30T04:54:00.177Z,101053.56
2019-04-30T04:55:06.658Z,101050.95
2019-04-30T04:56:11.510Z,101050.06
2019-04-30T04:57:19.333Z,101054.33
2019-04-30T04:58:22.517Z,101052.36
2019-04-30T04:59:26.972Z,101053.72
2019-04-30T05:00:31.430Z,101049.47
2019-04-30T05:01:35.889Z,101049.46
2019-04-30T05:02:49.755Z,101055.48
2019-04-30T05:03:54.863Z,101052.27
2019-04-30T05:04:59.985Z,101047.91
2019-04-30T05:06:04.550Z,101050.63
2019-04-30T05:07:09.114Z,101048.38
2019-04-30T05:08:13.551Z,101053.22
2019-04-30T05:09:19.480Z,101051.59
2019-04-30T05:10:24.083Z,101054.59
2019-04-30T05:11:29.341Z,101048.93
2019-04-30T05:12:37.296Z,101054.25
2019-04-30T05:13:41.443Z,101059.52
2019-04-30T05:14:46.236Z,101055.28
2019-04-30T05:15:51.557Z,101056.22
2019-04-30T05:16:56.157Z,101051.48
2019-04-30T05:18:00.612Z,101050.25
2019-04-30T05:19:05.071Z,101056.41
2019-04-30T05:20:16.302Z,101052.09
2019-04-30T05:21:26.716Z,101054.34
2019-04-30T05:22:31.544Z,101060.96
2019-04-30T05:23:36.362Z,101056.63
2019-04-30T05:24:40.915Z,101054.95
2019-04-30T05:25:45.338Z,101061.02
2019-04-30T05:26:49.812Z,101056.84
2019-04-30T05:27:54.267Z,101063.31
2019-04-30T05:28:59.465Z,101060.34
2019-04-30T05:30:09.741Z,101062.11
2019-04-30T05:31:15.599Z,101061.17
2019-04-30T05:32:20.073Z,101061.21
2019-04-30T05:33:25.494Z,101063.05
2019-04-30T05:34:30.293Z,101057.03
2019-04-30T05:35:34.767Z,101049.22
2019-04-30T05:36:39.299Z,101058.34
2019-04-30T05:37:43.760Z,101064.06
2019-04-30T05:38:48.833Z,101059.83
2019-04-30T05:39:54.290Z,101055.91
2019-04-30T05:40:59.602Z,101057.64
2019-04-30T05:42:05.137Z,101054.10
2019-04-30T05:43:11.403Z,101058.52
2019-04-30T05:44:15.930Z,101053.00
2019-04-30T05:45:21.765Z,101052.27
2019-04-30T05:46:26.219Z,101057.60
2019-04-30T05:47:31.001Z,101062.89
2019-04-30T05:48:35.561Z,101058.61
2019-04-30T05:49:40.213Z,101061.31
2019-04-30T05:50:44.669Z,101057.39
2019-04-30T05:51:55.431Z,101051.77
2019-04-30T05:52:56.431Z,101054.80
2019-04-30T05:54:01.249Z,101056.09
2019-04-30T05:55:08.547Z,101054.36
2019-04-30T05:56:13.457Z,101056.14
2019-04-30T05:57:19.697Z,101050.91
2019-04-30T05:58:24.263Z,101056.19
2019-04-30T05:59:29.758Z,101049.61
2019-04-30T06:00:34.570Z,101047.88
2019-04-30T06:01:39.584Z,101052.78
2019-04-30T06:02:44.520Z,101054.07
2019-04-30T06:03:49.041Z,101053.17
2019-04-30T06:04:53.848Z,101050.60
2019-04-30T06:05:58.926Z,101044.88
2019-04-30T06:07:05.136Z,101049.80
2019-04-30T06:08:11.248Z,101054.20
2019-04-30T06:09:31.105Z,101052.89
2019-04-30T06:10:39.615Z,101051.14
2019-04-30T06:12:01.175Z,101051.08
2019-04-30T06:13:09.192Z,101054.64
2019-04-30T06:14:32.111Z,101055.53
2019-04-30T06:15:50.297Z,101048.17
2019-04-30T06:17:05.666Z,101047.70
2019-04-30T06:18:13.467Z,101047.73
2019-04-30T06:19:16.765Z,101056.45
2019-04-30T06:20:21.235Z,101054.73
2019-04-30T06:21:26.636Z,101048.20
2019-04-30T06:22:31.182Z,101040.73
2019-04-30T06:23:35.628Z,101048.59
2019-04-30T06:24:40.327Z,101046.86
2019-04-30T06:25:56.295Z,101053.87
2019-04-30T06:26:51.411Z,101049.49
2019-04-30T06:27:56.020Z,101038.59
2019-04-30T06:29:00.775Z,101041.66
2019-04-30T06:30:06.170Z,101036.41
2019-04-30T06:31:10.700Z,101042.52
2019-04-30T06:32:18.477Z,101044.25
2019-04-30T06:33:21.795Z,101042.05
2019-04-30T06:34:26.814Z,101042.53
2019-04-30T06:35:31.644Z,101043.83
2019-04-30T06:36:38.402Z,101047.73
2019-04-30T06:37:42.609Z,101053.02
2019-04-30T06:38:48.976Z,101045.98
2019-04-30T06:39:53.544Z,101048.19
2019-04-30T06:40:59.039Z,101049.45
2019-04-30T06:42:06.847Z,101049.45
2019-04-30T06:43:09.888Z,101047.27
2019-04-30T06:44:14.774Z,101048.62
2019-04-30T06:45:19.330Z,101053.34
2019-04-30T06:46:23.760Z,101053.28
2019-04-30T06:47:33.019Z,101055.92
2019-04-30T06:48:35.707Z,101055.52
2019-04-30T06:49:40.177Z,101057.68
2019-04-30T06:50:44.639Z,101056.84
2019-04-30T06:51:49.724Z,101057.72
2019-04-30T06:52:58.787Z,101049.35
2019-04-30T06:54:00.375Z,101050.72
2019-04-30T06:55:06.561Z,101053.31
2019-04-30T06:56:11.405Z,101053.65
2019-04-30T06:57:15.854Z,101051.83
2019-04-30T06:58:20.666Z,101045.60
2019-04-30T06:59:25.256Z,101050.80
2019-04-30T07:00:40.213Z,101046.84
2019-04-30T07:01:45.494Z,101051.97
2019-04-30T07:02:49.955Z,101051.95
2019-04-30T07:03:56.875Z,101045.75
2019-04-30T07:05:00.924Z,101053.73
2019-04-30T07:06:05.383Z,101048.92
2019-04-30T07:07:09.896Z,101048.84
2019-04-30T07:08:39.589Z,101038.69
2019-04-30T07:09:58.381Z,101045.12
2019-04-30T07:11:20.295Z,101040.41
2019-04-30T07:12:42.492Z,101042.45
2019-04-30T07:13:51.761Z,101039.80
2019-04-30T07:14:54.766Z,101037.50
2019-04-30T07:15:59.223Z,101034.50
2019-04-30T07:17:04.652Z,101036.27
2019-04-30T07:18:09.171Z,101038.41
2019-04-30T07:19:13.670Z,101031.88
2019-04-30T07:20:19.114Z,101030.07
2019-04-30T07:21:24.634Z,101033.67
2019-04-30T07:22:39.706Z,101029.65
2019-04-30T07:23:39.005Z,101032.52
2019-04-30T07:24:45.239Z,101025.53
2019-04-30T07:25:51.731Z,101029.34
2019-04-30T07:26:59.724Z,101018.92
2019-04-30T07:28:02.808Z,101028.58
2019-04-30T07:29:09.476Z,101029.34
2019-04-30T07:30:13.507Z,101032.66
2019-04-30T07:31:19.268Z,101032.44
2019-04-30T07:32:23.898Z,101027.33
2019-04-30T07:33:29.536Z,101029.28
2019-04-30T07:34:37.038Z,101029.28
2019-04-30T07:35:40.847Z,101028.44
2019-04-30T07:36:49.328Z,101031.77
2019-04-30T07:37:54.555Z,101023.11
2019-04-30T07:38:59.995Z,101022.76
2019-04-30T07:40:05.339Z,101022.97
2019-04-30T07:41:10.146Z,101026.02
2019-04-30T07:42:14.613Z,101005.27
2019-04-30T07:43:20.043Z,101005.27
2019-04-30T07:44:33.775Z,101029.80
2019-04-30T07:45:32.245Z,101029.80
2019-04-30T07:46:41.095Z,101014.20
2019-04-30T07:47:43.279Z,101024.88
2019-04-30T07:48:49.954Z,101023.48
2019-04-30T07:49:55.947Z,101021.05
2019-04-30T07:51:00.359Z,101018.67
2019-04-30T07:52:05.606Z,101017.09
2019-04-30T07:53:11.562Z,101019.03
2019-04-30T07:54:16.456Z,101027.56
2019-04-30T07:55:21.225Z,101020.98
2019-04-30T07:56:29.277Z,101021.92
2019-04-30T07:57:32.423Z,101019.95
2019-04-30T07:58:39.078Z,101028.00
2019-04-30T07:59:43.711Z,101028.70
2019-04-30T08:00:49.702Z,101028.70
2019-04-30T08:02:06.558Z,101037.33
2019-04-30T08:03:05.486Z,101036.34
2019-04-30T08:04:29.072Z,101038.44
2019-04-30T08:05:34.544Z,101030.95
2019-04-30T08:06:39.684Z,101039.34
2019-04-30T08:07:44.817Z,101035.27
2019-04-30T08:08:50.642Z,101040.19
2019-04-30T08:09:55.425Z,101035.40
2019-04-30T08:10:59.883Z,101030.20
2019-04-30T08:12:04.712Z,101019.26
2019-04-30T08:13:14.220Z,101042.75
2019-04-30T08:14:15.621Z,101040.58
2019-04-30T08:15:20.108Z,101037.55
2019-04-30T08:16:24.572Z,101028.95
2019-04-30T08:17:29.316Z,101025.24
2019-04-30T08:18:33.774Z,101035.41
2019-04-30T08:19:38.468Z,101022.75
2019-04-30T08:20:44.773Z,101026.03
2019-04-30T08:21:49.538Z,101035.94
2019-04-30T08:22:54.298Z,101024.59
2019-04-30T08:24:01.040Z,101043.55
2019-04-30T08:25:06.433Z,101040.11
2019-04-30T08:26:10.893Z,101037.49
2019-04-30T08:27:15.514Z,101039.80
2019-04-30T08:28:20.007Z,101043.06
2019-04-30T08:29:24.772Z,101044.34
2019-04-30T08:30:30.102Z,101038.58
2019-04-30T08:31:34.615Z,101039.05
2019-04-30T08:32:39.074Z,101042.92
2019-04-30T08:33:43.525Z,101041.54
2019-04-30T08:34:49.924Z,101041.10
2019-04-30T08:35:54.445Z,101039.30
2019-04-30T08:36:59.508Z,101042.78
2019-04-30T08:38:04.424Z,101034.85
2019-04-30T08:39:09.726Z,101044.68
2019-04-30T08:40:14.403Z,101040.78
2019-04-30T08:41:19.461Z,101042.44
2019-04-30T08:42:31.837Z,101043.69
2019-04-30T08:43:30.105Z,101033.92
2019-04-30T08:44:34.582Z,101030.21
2019-04-30T08:45:39.130Z,101035.44
2019-04-30T08:46:43.584Z,101030.94
2019-04-30T08:47:49.295Z,101023.55
2019-04-30T08:48:53.980Z,101032.85
2019-04-30T08:49:59.471Z,101037.64
2019-04-30T08:51:04.958Z,101023.49
2019-04-30T08:52:10.681Z,101040.42
2019-04-30T08:53:26.694Z,101027.83
2019-04-30T08:54:22.487Z,101041.31
2019-04-30T08:55:26.943Z,101036.95
2019-04-30T08:56:31.415Z,101037.55
2019-04-30T08:57:35.875Z,101030.67
2019-04-30T08:58:40.329Z,101026.27
2019-04-30T08:59:44.780Z,101034.77
2019-04-30T09:00:49.233Z,101014.77
2019-04-30T09:01:54.004Z,101024.97
2019-04-30T09:02:59.374Z,101028.55
2019-04-30T09:04:03.903Z,101036.45
2019-04-30T09:05:10.228Z,101031.40
2019-04-30T09:06:16.345Z,101029.52
2019-04-30T09:07:20.959Z,101042.47
2019-04-30T09:08:25.417Z,101039.84
2019-04-30T09:09:30.154Z,101039.27
2019-04-30T09:10:34.902Z,101034.56
2019-04-30T09:11:51.828Z,101031.68
2019-04-30T09:12:45.532Z,101030.14
2019-04-30T09:13:50.066Z,101029.47
2019-04-30T09:14:54.521Z,101033.00
2019-04-30T09:15:59.436Z,101029.20
2019-04-30T09:17:04.219Z,101027.10
2019-04-30T09:18:12.388Z,101024.37
2019-04-30T09:19:15.506Z,101032.49
2019-04-30T09:20:19.970Z,101028.31
2019-04-30T09:21:24.608Z,101031.14
2019-04-30T09:22:30.035Z,101036.38
2019-04-30T09:23:45.926Z,101034.63
2019-04-30T09:24:40.796Z,101030.79
2019-04-30T09:25:45.264Z,101038.56
2019-04-30T09:26:49.739Z,101040.98
2019-04-30T09:27:54.195Z,101031.00
2019-04-30T09:28:59.355Z,101029.98
2019-04-30T09:30:10.203Z,101028.66
2019-04-30T09:31:13.875Z,101038.19
2019-04-30T09:32:19.255Z,101030.82
2019-04-30T09:33:24.854Z,101030.07
2019-04-30T09:34:29.359Z,101027.03
2019-04-30T09:35:33.766Z,101033.16
2019-04-30T09:36:39.156Z,101027.56
2019-04-30T09:37:43.971Z,101031.78
2019-04-30T09:38:49.396Z,101022.49
2019-04-30T09:39:54.148Z,101026.10
2019-04-30T09:40:59.417Z,101027.73
2019-04-30T09:42:04.040Z,101025.23
2019-04-30T09:43:08.774Z,101019.67
2019-04-30T09:44:13.512Z,101026.72
2019-04-30T09:45:18.714Z,101023.78
2019-04-30T09:46:27.009Z,101019.72
2019-04-30T09:47:29.619Z,101018.02
2019-04-30T09:48:34.369Z,101014.61
2019-04-30T09:49:41.382Z,101017.78
2019-04-30T09:50:45.513Z,101017.88
2019-04-30T09:51:50.461Z,101017.32
2019-04-30T09:52:55.463Z,101009.64
2019-04-30T09:54:03.073Z,101019.71
2019-04-30T09:55:06.799Z,101015.92
2019-04-30T09:56:11.402Z,101022.16
2019-04-30T09:57:15.886Z,101014.95
2019-04-30T09:58:20.993Z,101019.73
2019-04-30T09:59:25.783Z,101013.85
2019-04-30T10:00:30.538Z,101009.63
2019-04-30T10:01:35.319Z,101004.38
2019-04-30T10:02:39.799Z,101007.06
2019-04-30T10:03:44.771Z,101001.12
2019-04-30T10:04:50.015Z,101007.22
2019-04-30T10:05:55.036Z,101004.94
2019-04-30T10:06:59.687Z,101001.09
2019-04-30T10:08:04.303Z,101003.24
2019-04-30T10:09:11.226Z,100994.41
2019-04-30T10:10:18.856Z,101001.28
2019-04-30T10:11:27.691Z,100995.47
2019-04-30T10:12:32.229Z,100991.91
2019-04-30T10:13:36.977Z,100997.21
2019-04-30T10:14:41.458Z,100990.64
2019-04-30T10:15:50.030Z,100990.22
2019-04-30T10:17:04.095Z,100992.11
2019-04-30T10:18:09.832Z,100984.13
2019-04-30T10:19:15.041Z,100985.73
2019-04-30T10:20:22.863Z,100984.70
2019-04-30T10:21:29.030Z,100979.99
2019-04-30T10:22:33.843Z,100986.15
2019-04-30T10:23:39.175Z,100988.11
2019-04-30T10:24:43.935Z,100986.20
2019-04-30T10:25:48.923Z,100987.91
2019-04-30T10:26:53.699Z,100985.07
2019-04-30T10:27:59.743Z,100983.88
2019-04-30T10:29:06.020Z,100982.63
2019-04-30T10:30:13.631Z,100976.42
2019-04-30T10:31:18.719Z,100980.16
2019-04-30T10:32:24.235Z,100973.63
2019-04-30T10:33:28.809Z,100975.77
2019-04-30T10:34:34.219Z,100980.73
2019-04-30T10:35:38.717Z,100978.00
2019-04-30T10:36:43.154Z,100974.72
2019-04-30T10:37:48.559Z,100972.92
2019-04-30T10:38:53.328Z,100965.55
2019-04-30T10:39:59.777Z,100973.28
2019-04-30T10:41:04.713Z,100973.28
2019-04-30T10:42:09.225Z,100964.09
2019-04-30T10:43:13.683Z,100960.64
2019-04-30T10:44:18.806Z,100956.58
2019-04-30T10:45:23.330Z,100960.91
2019-04-30T10:46:28.083Z,100961.84
2019-04-30T10:47:32.819Z,100968.59
2019-04-30T10:48:37.319Z,100956.29
2019-04-30T10:49:41.792Z,100959.21
2019-04-30T10:50:46.380Z,100950.60
2019-04-30T10:51:51.140Z,100954.16
2019-04-30T10:52:55.885Z,100946.08
2019-04-30T10:54:00.364Z,100949.61
2019-04-30T10:55:06.345Z,100946.08
2019-04-30T10:56:10.969Z,100942.77
2019-04-30T10:57:15.682Z,100944.33
2019-04-30T10:58:20.142Z,100953.39
2019-04-30T10:59:24.619Z,100951.67
2019-04-30T11:00:40.813Z,100954.36
2019-04-30T11:01:45.307Z,100947.96
2019-04-30T11:02:50.059Z,100952.55
2019-04-30T11:03:54.903Z,100958.16
2019-04-30T11:04:59.371Z,100955.19
2019-04-30T11:06:03.917Z,100958.93
2019-04-30T11:07:08.706Z,100957.24
2019-04-30T11:08:13.174Z,100956.13
2019-04-30T11:09:17.828Z,100960.43
2019-04-30T11:10:22.286Z,100962.30
2019-04-30T11:11:28.317Z,100953.43
2019-04-30T11:12:33.227Z,100955.27
2019-04-30T11:13:38.023Z,100960.21
2019-04-30T11:14:42.789Z,100951.92
2019-04-30T11:15:49.222Z,100961.23
2019-04-30T11:16:54.000Z,100969.25
2019-04-30T11:17:59.659Z,100966.75
2019-04-30T11:19:04.749Z,100960.39
2019-04-30T11:20:10.414Z,100960.86
2019-04-30T11:21:15.239Z,100960.87
2019-04-30T11:22:20.333Z,100961.64
2019-04-30T11:23:25.026Z,100954.88
2019-04-30T11:24:36.636Z,100956.31
2019-04-30T11:25:37.263Z,100957.19
2019-04-30T11:26:43.156Z,100945.27
2019-04-30T11:27:50.115Z,100955.92
2019-04-30T11:28:54.362Z,100951.92
2019-04-30T11:30:03.214Z,100953.33
2019-04-30T11:31:13.190Z,100950.80
2019-04-30T11:32:19.734Z,100956.55
2019-04-30T11:33:24.748Z,100940.55
2019-04-30T11:34:29.251Z,100948.18
2019-04-30T11:35:33.856Z,100946.13
2019-04-30T11:36:38.984Z,100943.59
2019-04-30T11:37:43.741Z,100954.66
2019-04-30T11:38:48.942Z,100950.09
2019-04-30T11:39:54.404Z,100958.20
2019-04-30T11:40:59.283Z,100954.72
2019-04-30T11:42:03.880Z,100951.16
2019-04-30T11:43:08.790Z,100948.34
2019-04-30T11:44:13.247Z,100947.55
2019-04-30T11:45:20.772Z,100945.30
2019-04-30T11:46:28.757Z,100945.23
2019-04-30T11:47:33.992Z,100937.77
2019-04-30T11:48:38.799Z,100946.33
2019-04-30T11:49:44.239Z,100941.89
2019-04-30T11:50:49.659Z,100934.34
2019-04-30T11:51:55.177Z,100938.54
2019-04-30T11:53:14.013Z,100934.64
2019-04-30T11:54:05.949Z,100934.86
2019-04-30T11:55:12.156Z,100930.16
2019-04-30T11:56:16.850Z,100930.64
2019-04-30T11:57:33.201Z,100927.05
2019-04-30T11:58:38.862Z,100926.75
2019-04-30T11:59:47.875Z,100922.48
2019-04-30T12:00:52.491Z,100924.09
2019-04-30T12:01:58.764Z,100924.13
2019-04-30T12:03:04.491Z,100926.28
2019-04-30T12:04:09.350Z,100924.52
2019-04-30T12:05:14.871Z,100909.28
2019-04-30T12:06:19.610Z,100922.53
2019-04-30T12:07:41.695Z,100905.00
2019-04-30T12:09:02.561Z,100911.06
2019-04-30T12:10:16.217Z,100902.76
2019-04-30T12:11:22.383Z,100910.47
2019-04-30T12:12:28.839Z,100902.55
2019-04-30T12:13:33.006Z,100901.61
2019-04-30T12:14:39.459Z,100906.33
2019-04-30T12:15:44.079Z,100904.50
2019-04-30T12:16:50.717Z,100901.42
2019-04-30T12:17:54.905Z,100887.48
2019-04-30T12:19:00.691Z,100903.59
2019-04-30T12:20:11.402Z,100900.50
2019-04-30T12:21:15.879Z,100898.44
2019-04-30T12:22:20.643Z,100894.52
2019-04-30T12:23:25.383Z,100896.50
2019-04-30T12:24:30.411Z,100901.89
2019-04-30T12:25:34.880Z,100896.23
2019-04-30T12:26:39.352Z,100896.46
2019-04-30T12:27:43.814Z,100886.21
2019-04-30T12:28:48.287Z,100886.66
2019-04-30T12:29:52.745Z,100885.83
2019-04-30T12:30:58.897Z,100882.27
2019-04-30T12:32:03.363Z,100889.75
2019-04-30T12:33:09.057Z,100885.32
2019-04-30T12:34:13.558Z,100895.00